Terminal Aerodrome Forecast
Issued by NWS Quad Cities IA IL

Home | Current Version | Previous Version | Text Only | Print | Product List | Glossary On
Versions: 1 2 3 4 5 6 7 8 9 10 11 12 13 14 15 16 17 18 19 20 21 22 23
578
FTUS43 KDVN 180703 AAA
TAFDBQ
TAF AMD
KDBQ 180703Z 1807/1906 23004KT 1SM BR OVC006
      TEMPO 1807/1809 1/4SM FG VV002
     FM181000 23005KT 3SM BR OVC008
     FM181500 23007KT 5SM BR BKN015
     FM181800 24011KT P6SM SCT020 SCT250
     FM182300 23007KT P6SM SKC=

USA.gov is the U.S. government's official web portal to all federal, state and local government web resources and services.